createdAt,value
2018-04-02T00:00:56.330Z,0.00
2018-04-02T00:01:56.326Z,0.00
2018-04-02T00:02:56.310Z,0.00
2018-04-02T00:03:56.293Z,0.00
2018-04-02T00:05:17.287Z,0.00
2018-04-02T00:05:56.277Z,0.00
2018-04-02T00:06:56.266Z,0.00
2018-04-02T00:07:56.260Z,0.00
2018-04-02T00:08:56.255Z,0.00
2018-04-02T00:09:56.244Z,0.00
2018-04-02T00:11:17.231Z,0.00
2018-04-02T00:11:56.221Z,0.00
2018-04-02T00:12:56.207Z,0.00
2018-04-02T00:13:56.204Z,0.00
2018-04-02T00:14:56.188Z,0.00
2018-04-02T00:15:56.179Z,0.00
2018-04-02T00:17:17.176Z,0.00
2018-04-02T00:17:56.163Z,0.00
2018-04-02T00:18:56.149Z,0.00
2018-04-02T00:19:56.143Z,0.00
2018-04-02T00:20:56.129Z,0.00
2018-04-02T00:21:56.123Z,0.00
2018-04-02T00:23:17.121Z,0.00
2018-04-02T00:23:56.111Z,0.00
2018-04-02T00:24:56.092Z,0.00
2018-04-02T00:25:56.085Z,0.00
2018-04-02T00:26:56.068Z,0.00
2018-04-02T00:27:56.058Z,0.00
2018-04-02T00:29:17.054Z,0.00
2018-04-02T00:29:56.040Z,0.00
2018-04-02T00:30:56.030Z,0.00
2018-04-02T00:31:56.026Z,0.00
2018-04-02T00:32:56.021Z,0.00
2018-04-02T00:33:55.999Z,0.00
2018-04-02T00:35:17.007Z,0.00
2018-04-02T00:35:55.983Z,0.00
2018-04-02T00:36:55.986Z,0.00
2018-04-02T00:37:55.966Z,0.00
2018-04-02T00:38:55.953Z,0.00
2018-04-02T00:39:55.940Z,0.00
2018-04-02T00:41:16.934Z,0.00
2018-04-02T00:41:55.928Z,0.00
2018-04-02T00:42:55.906Z,0.00
2018-04-02T00:43:55.904Z,0.00
2018-04-02T00:44:55.906Z,0.00
2018-04-02T00:45:55.886Z,0.00
2018-04-02T00:47:16.877Z,0.00
2018-04-02T00:47:55.868Z,0.00
2018-04-02T00:48:55.861Z,0.00
2018-04-02T00:49:55.843Z,0.00
2018-04-02T00:50:55.857Z,0.00
2018-04-02T00:51:55.829Z,0.00
2018-04-02T00:53:16.816Z,0.00
2018-04-02T00:53:55.801Z,0.00
2018-04-02T00:54:55.843Z,0.00
2018-04-02T00:55:55.778Z,0.00
2018-04-02T00:56:55.781Z,0.00
2018-04-02T00:57:55.764Z,0.00
2018-04-02T00:59:16.762Z,0.00
2018-04-02T00:59:55.738Z,0.00
2018-04-02T01:00:55.740Z,0.00
2018-04-02T01:01:55.726Z,0.00
2018-04-02T01:02:55.711Z,0.00
2018-04-02T01:03:55.700Z,0.00
2018-04-02T01:05:16.731Z,0.00
2018-04-02T01:05:55.684Z,0.00
2018-04-02T01:06:55.670Z,0.00
2018-04-02T01:07:55.669Z,0.00
2018-04-02T01:08:55.653Z,0.00
2018-04-02T01:09:55.644Z,0.00
2018-04-02T01:11:16.637Z,0.00
2018-04-02T01:11:55.621Z,0.00
2018-04-02T01:12:55.610Z,0.00
2018-04-02T01:13:55.605Z,0.00
2018-04-02T01:14:55.594Z,0.00
2018-04-02T01:15:55.590Z,0.00
2018-04-02T01:17:16.596Z,0.00
2018-04-02T01:17:55.564Z,0.00
2018-04-02T01:18:55.556Z,0.00
2018-04-02T01:19:55.539Z,0.00
2018-04-02T01:20:55.530Z,0.00
2018-04-02T01:21:55.524Z,0.00
2018-04-02T01:23:16.523Z,0.00
2018-04-02T01:23:55.514Z,0.00
2018-04-02T01:24:55.498Z,0.00
2018-04-02T01:25:55.476Z,0.00
2018-04-02T01:26:55.471Z,0.00
2018-04-02T01:27:55.462Z,0.00
2018-04-02T01:29:16.458Z,0.00
2018-04-02T01:29:55.446Z,0.00
2018-04-02T01:30:55.439Z,0.00
2018-04-02T01:31:55.426Z,0.00
2018-04-02T01:32:55.418Z,0.00
2018-04-02T01:33:55.406Z,0.00
2018-04-02T01:35:16.398Z,0.00
2018-04-02T01:35:55.383Z,0.00
2018-04-02T01:36:55.387Z,0.00
2018-04-02T01:37:55.357Z,0.00
2018-04-02T01:38:55.354Z,0.00
2018-04-02T01:39:55.344Z,0.00
2018-04-02T01:41:16.343Z,0.00
2018-04-02T01:41:55.320Z,0.00
2018-04-02T01:42:55.313Z,0.00
2018-04-02T01:43:55.303Z,0.00
2018-04-02T01:44:55.289Z,0.00
2018-04-02T01:45:55.288Z,0.00
2018-04-02T01:47:16.277Z,0.00
2018-04-02T01:47:55.263Z,0.00
2018-04-02T01:48:55.252Z,0.00
2018-04-02T01:49:55.245Z,0.00
2018-04-02T01:50:55.235Z,0.00
2018-04-02T01:51:55.225Z,0.00
2018-04-02T01:53:16.214Z,0.00
2018-04-02T01:53:55.204Z,0.00
2018-04-02T01:54:55.193Z,0.00
2018-04-02T01:55:55.177Z,0.00
2018-04-02T01:56:55.199Z,0.00
2018-04-02T01:57:55.155Z,0.00
2018-04-02T01:59:16.161Z,0.00
2018-04-02T01:59:55.145Z,0.00
2018-04-02T02:00:55.128Z,0.00
2018-04-02T02:01:55.116Z,0.00
2018-04-02T02:02:55.123Z,0.00
2018-04-02T02:03:55.116Z,0.00
2018-04-02T02:05:16.089Z,0.00
2018-04-02T02:05:55.085Z,0.00
2018-04-02T02:06:55.065Z,0.00
2018-04-02T02:07:55.097Z,0.00
2018-04-02T02:08:55.040Z,0.00
2018-04-02T02:09:55.038Z,0.00
2018-04-02T02:11:16.030Z,0.00
2018-04-02T02:11:55.012Z,0.00
2018-04-02T02:12:55.036Z,0.00
2018-04-02T02:13:54.998Z,0.00
2018-04-02T02:14:54.981Z,0.00
2018-04-02T02:15:54.976Z,0.00
2018-04-02T02:17:15.962Z,0.00
2018-04-02T02:17:54.953Z,0.00
2018-04-02T02:18:54.937Z,0.00
2018-04-02T02:19:54.928Z,0.00
2018-04-02T02:20:54.921Z,0.00
2018-04-02T02:21:54.913Z,0.00
2018-04-02T02:23:15.909Z,0.00
2018-04-02T02:23:54.889Z,0.00
2018-04-02T02:24:54.881Z,0.00
2018-04-02T02:25:54.866Z,0.00
2018-04-02T02:26:54.858Z,0.00
2018-04-02T02:27:54.850Z,0.00
2018-04-02T02:29:15.847Z,0.00
2018-04-02T02:29:54.828Z,0.00
2018-04-02T02:30:54.819Z,0.00
2018-04-02T02:31:54.805Z,0.00
2018-04-02T02:32:54.794Z,0.00
2018-04-02T02:33:54.791Z,0.00
2018-04-02T02:35:15.785Z,0.00
2018-04-02T02:35:54.774Z,0.00
2018-04-02T02:36:54.753Z,0.00
2018-04-02T02:37:54.746Z,0.00
2018-04-02T02:38:54.731Z,0.00
2018-04-02T02:39:54.729Z,0.00
2018-04-02T02:41:15.721Z,0.00
2018-04-02T02:41:54.710Z,0.00
2018-04-02T02:42:54.693Z,0.00
2018-04-02T02:43:54.684Z,0.00
2018-04-02T02:44:54.673Z,0.00
2018-04-02T02:45:54.663Z,0.00
2018-04-02T02:47:15.664Z,0.00
2018-04-02T02:47:54.641Z,0.00
2018-04-02T02:48:54.630Z,0.00
2018-04-02T02:49:54.618Z,0.00
2018-04-02T02:50:54.606Z,0.00
2018-04-02T02:51:54.593Z,0.00
2018-04-02T02:53:15.602Z,0.00
2018-04-02T02:53:54.577Z,0.00
2018-04-02T02:54:54.566Z,0.00
2018-04-02T02:55:54.559Z,0.00
2018-04-02T02:56:54.550Z,0.00
2018-04-02T02:57:54.539Z,0.00
2018-04-02T02:59:15.528Z,0.00
2018-04-02T02:59:54.516Z,0.00
2018-04-02T03:00:54.501Z,0.00
2018-04-02T03:01:54.494Z,0.00
2018-04-02T03:02:54.480Z,0.00
2018-04-02T03:03:54.473Z,0.00
2018-04-02T03:05:15.467Z,0.00
2018-04-02T03:05:54.455Z,0.00
2018-04-02T03:06:54.445Z,0.00
2018-04-02T03:07:54.439Z,0.00
2018-04-02T03:08:54.414Z,0.00
2018-04-02T03:09:54.409Z,0.00
2018-04-02T03:11:15.411Z,0.00
2018-04-02T03:11:54.399Z,0.00
2018-04-02T03:12:54.378Z,0.00
2018-04-02T03:13:54.408Z,0.00
2018-04-02T03:14:54.347Z,0.00
2018-04-02T03:15:54.343Z,0.00
2018-04-02T03:17:15.336Z,0.00
2018-04-02T03:17:54.316Z,0.00
2018-04-02T03:18:54.316Z,0.00
2018-04-02T03:19:54.378Z,0.00
2018-04-02T03:20:54.290Z,0.00
2018-04-02T03:21:54.294Z,0.00
2018-04-02T03:23:15.280Z,0.00
2018-04-02T03:23:54.261Z,0.00
2018-04-02T03:24:54.251Z,0.00
2018-04-02T03:25:54.247Z,0.00
2018-04-02T03:26:54.222Z,0.00
2018-04-02T03:27:54.208Z,0.00
2018-04-02T03:29:15.221Z,0.00
2018-04-02T03:29:54.199Z,0.00
2018-04-02T03:30:54.181Z,0.00
2018-04-02T03:31:54.183Z,0.00
2018-04-02T03:32:54.158Z,0.00
2018-04-02T03:33:54.152Z,0.00
2018-04-02T03:35:15.143Z,0.00
2018-04-02T03:35:54.147Z,0.00
2018-04-02T03:36:54.116Z,0.00
2018-04-02T03:37:54.108Z,0.00
2018-04-02T03:38:54.104Z,0.00
2018-04-02T03:39:54.083Z,0.00
2018-04-02T03:41:15.085Z,0.00
2018-04-02T03:41:54.066Z,0.00
2018-04-02T03:42:54.053Z,0.00
2018-04-02T03:43:54.048Z,0.00
2018-04-02T03:44:54.036Z,0.00
2018-04-02T03:45:54.021Z,0.00
2018-04-02T03:47:15.010Z,0.00
2018-04-02T03:47:53.996Z,0.00
2018-04-02T03:48:53.993Z,0.00
2018-04-02T03:49:53.985Z,0.00
2018-04-02T03:50:53.972Z,0.00
2018-04-02T03:51:53.956Z,0.00
2018-04-02T03:53:14.946Z,0.00
2018-04-02T03:53:53.929Z,0.00
2018-04-02T03:54:53.931Z,0.00
2018-04-02T03:55:53.910Z,0.00
2018-04-02T03:56:53.905Z,0.00
2018-04-02T03:57:53.990Z,0.00
2018-04-02T03:59:14.890Z,0.00
2018-04-02T03:59:53.886Z,0.00
2018-04-02T04:00:53.858Z,0.00
2018-04-02T04:01:53.847Z,0.00
2018-04-02T04:02:53.848Z,0.00
2018-04-02T04:03:53.826Z,0.00
2018-04-02T04:05:14.820Z,0.00
2018-04-02T04:05:53.819Z,0.00
2018-04-02T04:06:53.787Z,0.00
2018-04-02T04:07:53.783Z,0.00
2018-04-02T04:08:53.782Z,0.00
2018-04-02T04:09:53.758Z,0.00
2018-04-02T04:11:14.752Z,4.00
2018-04-02T04:11:53.740Z,4.00
2018-04-02T04:12:53.732Z,0.00
2018-04-02T04:13:53.716Z,4.00
2018-04-02T04:14:53.708Z,4.00
2018-04-02T04:15:53.698Z,4.00
2018-04-02T04:17:14.696Z,4.00
2018-04-02T04:17:53.678Z,8.00
2018-04-02T04:18:53.661Z,8.00
2018-04-02T04:19:53.657Z,8.00
2018-04-02T04:20:53.649Z,8.00
2018-04-02T04:21:53.638Z,12.00
2018-04-02T04:23:14.624Z,16.00
2018-04-02T04:23:53.642Z,16.00
2018-04-02T04:24:53.600Z,16.00
2018-04-02T04:25:53.586Z,20.00
2018-04-02T04:26:53.579Z,24.00
2018-04-02T04:27:53.566Z,28.00
2018-04-02T04:29:14.559Z,36.00
2018-04-02T04:29:53.541Z,40.00
2018-04-02T04:30:53.534Z,40.00
2018-04-02T04:31:53.520Z,48.00
2018-04-02T04:32:53.526Z,56.00
2018-04-02T04:33:53.496Z,64.00
2018-04-02T04:35:14.497Z,72.00
2018-04-02T04:35:53.484Z,80.00
2018-04-02T04:36:53.467Z,88.00
2018-04-02T04:37:53.482Z,92.00
2018-04-02T04:38:53.453Z,100.00
2018-04-02T04:39:53.440Z,100.00
2018-04-02T04:41:14.655Z,112.00
2018-04-02T04:41:53.412Z,124.00
2018-04-02T04:42:53.400Z,140.00
2018-04-02T04:43:53.401Z,148.00
2018-04-02T04:44:53.485Z,156.00
2018-04-02T04:45:53.374Z,172.00
2018-04-02T04:47:14.422Z,184.00
2018-04-02T04:47:53.363Z,200.00
2018-04-02T04:48:53.349Z,200.00
2018-04-02T04:49:53.336Z,220.00
2018-04-02T04:50:53.341Z,224.00
2018-04-02T04:51:53.312Z,228.00
2018-04-02T04:53:14.302Z,240.00
2018-04-02T04:53:53.282Z,248.00
2018-04-02T04:54:53.276Z,248.00
2018-04-02T04:55:53.272Z,244.00
2018-04-02T04:56:53.261Z,260.00
2018-04-02T04:57:53.241Z,276.00
2018-04-02T04:59:14.252Z,284.00
2018-04-02T04:59:53.224Z,288.00
2018-04-02T05:00:53.212Z,300.00
2018-04-02T05:01:53.209Z,308.00
2018-04-02T05:02:53.200Z,308.00
2018-04-02T05:03:53.192Z,344.00
2018-04-02T05:05:14.176Z,352.00
2018-04-02T05:05:53.162Z,328.00
2018-04-02T05:06:53.150Z,328.00
2018-04-02T05:07:53.149Z,328.00
2018-04-02T05:08:53.127Z,348.00
2018-04-02T05:09:53.123Z,364.00
2018-04-02T05:11:14.127Z,364.00
2018-04-02T05:11:53.098Z,388.00
2018-04-02T05:12:53.716Z,392.00
2018-04-02T05:13:53.077Z,424.00
2018-04-02T05:14:53.073Z,432.00
2018-04-02T05:15:53.055Z,440.00
2018-04-02T05:17:14.060Z,440.00
2018-04-02T05:17:53.036Z,440.00
2018-04-02T05:18:53.029Z,476.00
2018-04-02T05:19:53.015Z,456.00
2018-04-02T05:20:53.000Z,512.00
2018-04-02T05:21:53.001Z,524.00
2018-04-02T05:23:13.986Z,524.00
2018-04-02T05:23:52.975Z,552.00
2018-04-02T05:24:52.964Z,528.00
2018-04-02T05:25:52.955Z,560.00
2018-04-02T05:26:52.998Z,600.00
2018-04-02T05:27:52.933Z,576.00
2018-04-02T05:29:13.943Z,652.00
2018-04-02T05:29:52.910Z,668.00
2018-04-02T05:30:52.952Z,624.00
2018-04-02T05:31:52.890Z,672.00
2018-04-02T05:32:52.879Z,668.00
2018-04-02T05:33:52.872Z,664.00
2018-04-02T05:35:13.871Z,696.00
2018-04-02T05:35:52.851Z,704.00
2018-04-02T05:36:52.839Z,748.00
2018-04-02T05:37:52.824Z,692.00
2018-04-02T05:38:52.823Z,748.00
2018-04-02T05:39:52.805Z,684.00
2018-04-02T05:41:14.029Z,712.00
2018-04-02T05:41:52.791Z,808.00
2018-04-02T05:42:52.779Z,760.00
2018-04-02T05:43:52.770Z,760.00
2018-04-02T05:44:52.753Z,952.00
2018-04-02T05:45:52.742Z,1040.00
2018-04-02T05:47:13.735Z,784.00
2018-04-02T05:47:52.726Z,880.00
2018-04-02T05:48:52.718Z,860.00
2018-04-02T05:49:52.711Z,948.00
2018-04-02T05:50:52.694Z,960.00
2018-04-02T05:51:52.685Z,972.00
2018-04-02T05:53:13.676Z,924.00
2018-04-02T05:53:52.678Z,1208.00
2018-04-02T05:54:52.654Z,1144.00
2018-04-02T05:55:52.639Z,936.00
2018-04-02T05:56:52.634Z,1216.00
2018-04-02T05:57:52.617Z,1428.00
2018-04-02T05:59:13.662Z,1260.00
2018-04-02T05:59:52.600Z,1388.00
2018-04-02T06:00:52.592Z,1000.00
2018-04-02T06:01:52.581Z,1264.00
2018-04-02T06:02:52.575Z,1184.00
2018-04-02T06:03:52.555Z,1648.00
2018-04-02T06:05:13.581Z,1088.00
2018-04-02T06:05:52.545Z,1040.00
2018-04-02T06:06:52.528Z,1076.00
2018-04-02T06:07:52.519Z,1116.00
2018-04-02T06:08:52.509Z,1316.00
2018-04-02T06:09:52.505Z,1380.00
2018-04-02T06:11:13.505Z,1376.00
2018-04-02T06:11:52.480Z,1348.00
2018-04-02T06:12:52.468Z,1544.00
2018-04-02T06:13:52.454Z,1400.00
2018-04-02T06:14:52.450Z,1628.00
2018-04-02T06:15:52.431Z,1400.00
2018-04-02T06:17:13.434Z,1528.00
2018-04-02T06:17:52.417Z,1356.00
2018-04-02T06:18:52.403Z,1432.00
2018-04-02T06:19:52.417Z,1640.00
2018-04-02T06:20:52.389Z,1556.00
2018-04-02T06:21:52.400Z,2176.00
2018-04-02T06:23:13.378Z,2588.00
2018-04-02T06:23:52.355Z,1740.00
2018-04-02T06:24:52.347Z,2488.00
2018-04-02T06:25:52.354Z,2008.00
2018-04-02T06:26:52.322Z,2632.00
2018-04-02T06:27:52.315Z,3136.00
2018-04-02T06:29:13.319Z,2476.00
2018-04-02T06:29:52.292Z,2676.00
2018-04-02T06:30:52.280Z,2468.00
2018-04-02T06:31:52.290Z,2792.00
2018-04-02T06:32:52.262Z,2360.00
2018-04-02T06:33:52.251Z,3184.00
2018-04-02T06:35:13.247Z,3072.00
2018-04-02T06:35:52.231Z,3104.00
2018-04-02T06:36:52.224Z,2792.00
2018-04-02T06:37:52.213Z,3268.00
2018-04-02T06:38:52.207Z,3248.00
2018-04-02T06:39:52.191Z,2900.00
2018-04-02T06:41:13.190Z,3440.00
2018-04-02T06:41:52.207Z,3756.00
2018-04-02T06:42:52.161Z,2752.00
2018-04-02T06:43:52.158Z,2532.00
2018-04-02T06:44:52.141Z,3536.00
2018-04-02T06:45:52.138Z,2744.00
2018-04-02T06:47:13.134Z,3784.00
2018-04-02T06:47:52.143Z,4976.00
2018-04-02T06:48:52.116Z,3096.00
2018-04-02T06:49:52.095Z,2728.00
2018-04-02T06:50:52.087Z,3536.00
2018-04-02T06:51:52.073Z,3204.00
2018-04-02T06:53:13.075Z,3428.00
2018-04-02T06:53:52.058Z,3784.00
2018-04-02T06:54:52.057Z,4696.00
2018-04-02T06:55:52.043Z,4520.00
2018-04-02T06:56:52.031Z,3788.00
2018-04-02T06:57:52.021Z,3280.00
2018-04-02T06:59:13.017Z,3168.00
2018-04-02T06:59:52.006Z,3560.00
2018-04-02T07:00:51.995Z,5964.00
2018-04-02T07:01:51.977Z,3536.00
2018-04-02T07:02:51.967Z,3184.00
2018-04-02T07:03:51.964Z,3124.00
2018-04-02T07:05:13.021Z,3228.00
2018-04-02T07:05:51.939Z,3748.00
2018-04-02T07:06:51.940Z,3768.00
2018-04-02T07:07:51.923Z,3512.00
2018-04-02T07:08:51.926Z,3308.00
2018-04-02T07:09:51.904Z,3824.00
2018-04-02T07:11:12.903Z,5228.00
2018-04-02T07:11:51.890Z,4892.00
2018-04-02T07:12:51.873Z,3776.00
2018-04-02T07:13:51.875Z,3464.00
2018-04-02T07:14:51.857Z,3100.00
2018-04-02T07:15:51.845Z,5060.00
2018-04-02T07:17:12.852Z,6564.00
2018-04-02T07:17:51.855Z,4360.00
2018-04-02T07:18:51.823Z,5520.00
2018-04-02T07:19:51.818Z,5988.00
2018-04-02T07:20:51.841Z,5192.00
2018-04-02T07:21:51.805Z,5504.00
2018-04-02T07:23:12.794Z,7064.00
2018-04-02T07:23:51.774Z,5544.00
2018-04-02T07:24:51.860Z,3680.00
2018-04-02T07:25:51.758Z,6976.00
2018-04-02T07:26:51.744Z,6352.00
2018-04-02T07:27:51.738Z,5844.00
2018-04-02T07:29:12.736Z,5952.00
2018-04-02T07:29:51.728Z,5880.00
2018-04-02T07:30:51.747Z,7864.00
2018-04-02T07:31:51.709Z,5832.00
2018-04-02T07:32:51.707Z,8252.00
2018-04-02T07:33:51.689Z,8104.00
2018-04-02T07:35:12.688Z,7692.00
2018-04-02T07:35:51.671Z,8156.00
2018-04-02T07:36:51.661Z,10876.00
2018-04-02T07:37:51.652Z,7364.00
2018-04-02T07:38:51.677Z,6044.00
2018-04-02T07:39:51.640Z,8788.00
2018-04-02T07:41:12.630Z,7288.00
2018-04-02T07:41:51.617Z,6760.00
2018-04-02T07:42:51.609Z,6384.00
2018-04-02T07:43:51.601Z,9560.00
2018-04-02T07:44:51.591Z,11012.00
2018-04-02T07:45:51.628Z,11304.00
2018-04-02T07:47:12.580Z,8484.00
2018-04-02T07:47:51.568Z,11148.00
2018-04-02T07:48:51.561Z,8088.00
2018-04-02T07:49:51.551Z,9648.00
2018-04-02T07:50:51.622Z,9572.00
2018-04-02T07:51:51.535Z,5780.00
2018-04-02T07:53:12.538Z,6424.00
2018-04-02T07:53:51.519Z,6996.00
2018-04-02T07:54:51.510Z,6072.00
2018-04-02T07:55:51.500Z,9848.00
2018-04-02T07:56:51.493Z,7620.00
2018-04-02T07:57:51.482Z,8848.00
2018-04-02T07:59:12.484Z,9396.00
2018-04-02T07:59:51.467Z,8920.00
2018-04-02T08:00:51.460Z,8400.00
2018-04-02T08:01:51.453Z,7700.00
2018-04-02T08:02:51.460Z,7304.00
2018-04-02T08:03:51.432Z,7524.00
2018-04-02T08:05:12.433Z,7132.00
2018-04-02T08:05:51.419Z,6732.00
2018-04-02T08:06:51.406Z,5720.00
2018-04-02T08:07:51.404Z,7052.00
2018-04-02T08:08:51.393Z,7864.00
2018-04-02T08:09:51.381Z,7512.00
2018-04-02T08:11:12.379Z,7224.00
2018-04-02T08:11:51.431Z,6652.00
2018-04-02T08:12:51.389Z,6648.00
2018-04-02T08:13:51.407Z,6452.00
2018-04-02T08:14:51.339Z,7044.00
2018-04-02T08:15:51.366Z,7928.00
2018-04-02T08:17:12.330Z,8420.00
2018-04-02T08:17:51.356Z,7924.00
2018-04-02T08:18:51.329Z,8932.00
2018-04-02T08:19:51.299Z,9872.00
2018-04-02T08:20:51.515Z,6356.00
2018-04-02T08:21:51.287Z,7744.00
2018-04-02T08:23:13.352Z,8760.00
2018-04-02T08:23:51.273Z,7676.00
2018-04-02T08:24:51.268Z,7416.00
2018-04-02T08:25:51.259Z,8048.00
2018-04-02T08:26:51.529Z,6580.00
2018-04-02T08:27:52.092Z,6432.00
2018-04-02T08:29:12.353Z,7280.00
2018-04-02T08:29:51.236Z,8016.00
2018-04-02T08:30:51.229Z,7088.00
2018-04-02T08:31:51.252Z,7932.00
2018-04-02T08:32:51.311Z,7292.00
2018-04-02T08:33:51.189Z,9436.00
2018-04-02T08:35:12.204Z,7664.00
2018-04-02T08:35:51.247Z,6956.00
2018-04-02T08:36:51.774Z,7784.00
2018-04-02T08:37:51.159Z,6512.00
2018-04-02T08:38:51.188Z,6564.00
2018-04-02T08:39:51.155Z,6936.00
2018-04-02T08:41:12.376Z,6372.00
2018-04-02T08:41:51.274Z,6088.00
2018-04-02T08:42:51.351Z,6400.00
2018-04-02T08:43:51.118Z,7156.00
2018-04-02T08:44:51.124Z,7456.00
2018-04-02T08:45:51.126Z,5880.00
2018-04-02T08:47:12.096Z,6332.00
2018-04-02T08:47:51.191Z,5808.00
2018-04-02T08:48:51.148Z,7312.00
2018-04-02T08:49:51.115Z,3992.00
2018-04-02T08:50:51.111Z,4812.00
2018-04-02T08:51:51.122Z,6432.00
2018-04-02T08:53:12.046Z,7388.00
2018-04-02T08:53:51.600Z,6204.00
2018-04-02T08:54:51.028Z,6808.00
2018-04-02T08:55:51.089Z,9016.00
2018-04-02T08:56:51.028Z,8240.00
2018-04-02T08:57:51.794Z,8668.00
2018-04-02T08:59:12.082Z,8792.00
2018-04-02T08:59:51.030Z,9036.00
2018-04-02T09:00:51.087Z,7272.00
2018-04-02T09:01:50.999Z,6388.00
2018-04-02T09:02:51.022Z,5920.00
2018-04-02T09:03:50.998Z,5228.00
2018-04-02T09:05:12.025Z,6588.00
2018-04-02T09:05:50.998Z,6808.00
2018-04-02T09:06:50.941Z,7912.00
2018-04-02T09:07:50.940Z,9044.00
2018-04-02T09:08:50.928Z,8816.00
2018-04-02T09:09:50.913Z,8540.00
2018-04-02T09:11:11.913Z,8292.00
2018-04-02T09:11:50.897Z,9596.00
2018-04-02T09:12:50.906Z,9360.00
2018-04-02T09:13:50.890Z,8968.00
2018-04-02T09:14:50.876Z,8952.00
2018-04-02T09:15:50.876Z,8492.00
2018-04-02T09:17:11.873Z,6932.00
2018-04-02T09:17:50.861Z,5856.00
2018-04-02T09:18:50.854Z,5736.00
2018-04-02T09:19:50.854Z,6148.00
2018-04-02T09:20:50.840Z,7652.00
2018-04-02T09:21:50.834Z,7428.00
2018-04-02T09:23:11.851Z,6936.00
2018-04-02T09:23:50.824Z,7348.00
2018-04-02T09:24:50.868Z,7788.00
2018-04-02T09:25:50.810Z,5632.00
2018-04-02T09:26:50.810Z,5400.00
2018-04-02T09:27:50.799Z,5560.00
2018-04-02T09:29:11.790Z,5428.00
2018-04-02T09:29:50.780Z,5884.00
2018-04-02T09:30:50.772Z,5744.00
2018-04-02T09:31:50.782Z,5664.00
2018-04-02T09:32:50.758Z,6204.00
2018-04-02T09:33:50.758Z,5540.00
2018-04-02T09:35:11.757Z,6124.00
2018-04-02T09:35:50.741Z,6876.00
2018-04-02T09:36:50.740Z,6448.00
2018-04-02T09:37:50.727Z,6948.00
2018-04-02T09:38:50.722Z,8384.00
2018-04-02T09:39:50.714Z,8088.00
2018-04-02T09:41:11.718Z,7368.00
2018-04-02T09:41:50.948Z,6344.00
2018-04-02T09:42:50.698Z,5520.00
2018-04-02T09:43:50.697Z,6036.00
2018-04-02T09:44:50.689Z,5576.00
2018-04-02T09:45:50.676Z,5236.00
2018-04-02T09:47:11.685Z,5256.00
2018-04-02T09:47:50.670Z,6204.00
2018-04-02T09:48:50.661Z,6808.00
2018-04-02T09:49:50.653Z,7116.00
2018-04-02T09:50:50.654Z,4920.00
2018-04-02T09:51:50.644Z,4212.00
2018-04-02T09:53:11.640Z,3828.00
2018-04-02T09:53:50.629Z,3532.00
2018-04-02T09:54:50.627Z,3532.00
2018-04-02T09:55:50.618Z,3688.00
2018-04-02T09:56:50.684Z,3520.00
2018-04-02T09:57:50.625Z,3764.00
2018-04-02T09:59:11.643Z,3764.00
2018-04-02T09:59:50.602Z,3560.00
2018-04-02T10:00:50.650Z,3592.00
2018-04-02T10:01:50.583Z,3468.00
2018-04-02T10:02:50.582Z,3468.00
2018-04-02T10:03:50.575Z,3504.00
2018-04-02T10:05:11.710Z,3692.00
2018-04-02T10:05:50.570Z,4668.00
2018-04-02T10:06:50.570Z,6212.00
2018-04-02T10:07:50.627Z,4124.00
2018-04-02T10:08:50.538Z,3708.00
2018-04-02T10:09:50.589Z,3584.00
2018-04-02T10:11:11.525Z,4868.00
2018-04-02T10:11:50.515Z,5692.00
2018-04-02T10:12:50.517Z,4596.00
2018-04-02T10:13:50.502Z,4020.00
2018-04-02T10:14:50.500Z,3612.00
2018-04-02T10:15:50.489Z,4140.00
2018-04-02T10:17:11.494Z,4232.00
2018-04-02T10:17:50.474Z,3996.00
2018-04-02T10:18:50.504Z,3532.00
2018-04-02T10:19:50.467Z,3368.00
2018-04-02T10:20:50.457Z,3344.00
2018-04-02T10:21:50.451Z,3364.00
2018-04-02T10:23:11.568Z,3592.00
2018-04-02T10:23:50.488Z,3388.00
2018-04-02T10:24:50.440Z,3304.00
2018-04-02T10:25:50.424Z,3304.00
2018-04-02T10:26:50.422Z,3268.00
2018-04-02T10:27:50.418Z,3264.00
2018-04-02T10:29:11.418Z,3128.00
2018-04-02T10:29:50.442Z,4572.00
2018-04-02T10:30:50.393Z,4844.00
2018-04-02T10:31:50.386Z,4284.00
2018-04-02T10:32:50.392Z,4092.00
2018-04-02T10:33:50.378Z,4412.00
2018-04-02T10:35:11.382Z,4280.00
2018-04-02T10:35:50.376Z,3472.00
2018-04-02T10:36:50.359Z,3568.00
2018-04-02T10:37:50.359Z,3872.00
2018-04-02T10:38:50.345Z,4284.00
2018-04-02T10:39:50.338Z,3972.00
2018-04-02T10:41:11.354Z,3276.00
2018-04-02T10:41:50.326Z,3608.00
2018-04-02T10:42:50.318Z,3612.00
2018-04-02T10:43:50.316Z,3448.00
2018-04-02T10:44:50.314Z,3464.00
2018-04-02T10:45:50.302Z,4128.00
2018-04-02T10:47:11.299Z,5296.00
2018-04-02T10:47:50.287Z,4612.00
2018-04-02T10:48:50.288Z,3432.00
2018-04-02T10:49:50.278Z,3832.00
2018-04-02T10:50:50.272Z,4088.00
2018-04-02T10:51:50.268Z,5456.00
2018-04-02T10:53:11.261Z,4452.00
2018-04-02T10:53:50.258Z,4524.00
2018-04-02T10:54:50.249Z,4968.00
2018-04-02T10:55:50.266Z,6364.00
2018-04-02T10:56:50.230Z,5796.00
2018-04-02T10:57:50.247Z,5900.00
2018-04-02T10:59:11.225Z,6472.00
2018-04-02T10:59:50.245Z,4780.00
2018-04-02T11:00:50.224Z,4292.00
2018-04-02T11:01:50.205Z,4624.00
2018-04-02T11:02:50.192Z,5160.00
2018-04-02T11:03:50.189Z,5380.00
2018-04-02T11:05:11.191Z,4420.00
2018-04-02T11:05:50.183Z,4696.00
2018-04-02T11:06:50.168Z,4800.00
2018-04-02T11:07:50.166Z,4572.00
2018-04-02T11:08:50.155Z,5592.00
2018-04-02T11:09:50.162Z,5096.00
2018-04-02T11:11:11.157Z,5896.00
2018-04-02T11:11:50.143Z,6620.00
2018-04-02T11:12:50.136Z,6900.00
2018-04-02T11:13:50.138Z,5108.00
2018-04-02T11:14:50.121Z,4684.00
2018-04-02T11:15:50.155Z,4956.00
2018-04-02T11:17:11.124Z,5928.00
2018-04-02T11:17:50.109Z,6632.00
2018-04-02T11:18:50.103Z,6104.00
2018-04-02T11:19:50.095Z,5380.00
2018-04-02T11:20:50.092Z,5908.00
2018-04-02T11:21:50.078Z,7060.00
2018-04-02T11:23:11.083Z,6740.00
2018-04-02T11:23:50.074Z,6036.00
2018-04-02T11:24:50.070Z,6912.00
2018-04-02T11:25:50.059Z,6384.00
2018-04-02T11:26:50.065Z,6160.00
2018-04-02T11:27:50.056Z,5776.00
2018-04-02T11:29:11.054Z,5280.00
2018-04-02T11:29:50.044Z,5436.00
2018-04-02T11:30:50.032Z,6012.00
2018-04-02T11:31:50.025Z,4180.00
2018-04-02T11:32:50.046Z,4060.00
2018-04-02T11:33:50.028Z,4304.00
2018-04-02T11:35:11.017Z,5096.00
2018-04-02T11:35:50.011Z,4020.00
2018-04-02T11:36:49.996Z,3148.00
2018-04-02T11:37:49.990Z,3144.00
2018-04-02T11:38:49.997Z,3424.00
2018-04-02T11:39:49.978Z,4412.00
2018-04-02T11:41:10.976Z,4868.00
2018-04-02T11:41:49.961Z,4708.00
2018-04-02T11:42:49.985Z,4992.00
2018-04-02T11:43:49.962Z,5076.00
2018-04-02T11:44:49.952Z,5040.00
2018-04-02T11:45:49.949Z,5176.00
2018-04-02T11:47:10.959Z,5628.00
2018-04-02T11:47:49.940Z,5272.00
2018-04-02T11:48:49.939Z,5276.00
2018-04-02T11:49:49.928Z,4768.00
2018-04-02T11:50:49.922Z,5964.00
2018-04-02T11:51:49.910Z,6240.00
2018-04-02T11:53:10.916Z,5892.00
2018-04-02T11:53:49.909Z,6540.00
2018-04-02T11:54:49.889Z,6664.00
2018-04-02T11:55:49.888Z,6156.00
2018-04-02T11:56:49.887Z,5540.00
2018-04-02T11:57:49.903Z,4680.00
2018-04-02T11:59:10.882Z,4660.00
2018-04-02T11:59:49.875Z,5856.00
2018-04-02T12:00:49.868Z,7156.00
2018-04-02T12:01:49.854Z,6536.00
2018-04-02T12:02:49.846Z,5988.00
2018-04-02T12:03:49.847Z,5672.00
2018-04-02T12:05:10.849Z,6016.00
2018-04-02T12:05:49.833Z,6248.00
2018-04-02T12:06:49.832Z,6224.00
2018-04-02T12:07:49.819Z,6716.00
2018-04-02T12:08:49.825Z,5976.00
2018-04-02T12:09:49.819Z,5644.00
2018-04-02T12:11:10.824Z,5152.00
2018-04-02T12:11:49.810Z,5948.00
2018-04-02T12:12:49.802Z,6340.00
2018-04-02T12:13:49.796Z,7056.00
2018-04-02T12:14:49.834Z,7884.00
2018-04-02T12:15:49.785Z,6028.00
2018-04-02T12:17:10.784Z,5584.00
2018-04-02T12:17:49.772Z,6496.00
2018-04-02T12:18:49.772Z,5800.00
2018-04-02T12:19:49.769Z,4648.00
2018-04-02T12:20:49.774Z,4948.00
2018-04-02T12:21:49.749Z,5700.00
2018-04-02T12:23:10.755Z,6396.00
2018-04-02T12:23:49.746Z,7400.00
2018-04-02T12:24:49.745Z,7104.00
2018-04-02T12:25:49.732Z,6748.00
2018-04-02T12:26:49.738Z,5988.00
2018-04-02T12:27:49.737Z,6296.00
2018-04-02T12:29:10.740Z,6452.00
2018-04-02T12:29:49.717Z,5868.00
2018-04-02T12:30:49.724Z,5936.00
2018-04-02T12:31:49.710Z,5756.00
2018-04-02T12:32:49.708Z,6816.00